Floyd Bennett Memorial Airport


Codes: KGFL/GFL
Name: Floyd Bennett Memorial Airport
City: Glens Falls
Country: United States
Elevation: 328 ft.
Website:
Wikipedia:

Photos at Floyd Bennett Memorial Airport


   Photos courtesy of SpottingLog. You can add your own sightings and photos by signing up for a free trial today.



No photos found.

Weather at Floyd Bennett Memorial Airport


Time (UTC)DescriptionTempratureWindCloud coverageVisibilityPressureHumidity
17-Jun-2024 06:00Clear Sky13°C4 mph, SW0%10000m1018hPa88%
17-Jun-2024 09:00Scattered Clouds12°C4 mph, S33%10000m1019hPa87%
17-Jun-2024 12:00Broken Clouds15°C9 mph, S55%10000m1020hPa80%
17-Jun-2024 15:00Broken Clouds24°C11 mph, S64%10000m1019hPa61%
17-Jun-2024 18:00Broken Clouds24°C4 mph, SE75%10000m1018hPa73%
17-Jun-2024 21:00Few Clouds30°C9 mph, SW16%10000m1017hPa52%
18-Jun-2024 00:00Few Clouds25°C4 mph, SW24%10000m1018hPa74%
18-Jun-2024 03:00Clear Sky21°C4 mph, SW0%10000m1019hPa86%
18-Jun-2024 06:00Scattered Clouds19°C4 mph, S34%10000m1021hPa95%
18-Jun-2024 09:00Broken Clouds18°C4 mph, S51%10000m1021hPa97%
18-Jun-2024 12:00Broken Clouds22°C7 mph, S78%10000m1022hPa83%
18-Jun-2024 15:00Broken Clouds28°C7 mph, S66%10000m1022hPa63%
18-Jun-2024 18:00Broken Clouds33°C9 mph, S64%10000m1021hPa49%
18-Jun-2024 21:00Broken Clouds32°C7 mph, SW51%10000m1020hPa57%
19-Jun-2024 00:00Broken Clouds27°C4 mph, S62%10000m1021hPa76%
19-Jun-2024 03:00Scattered Clouds23°C4 mph, S42%10000m1023hPa89%
19-Jun-2024 06:00Scattered Clouds21°C7 mph, S45%10000m1024hPa97%
19-Jun-2024 09:00Overcast Clouds19°C7 mph, S97%10000m1024hPa96%
19-Jun-2024 12:00Overcast Clouds23°C7 mph, S98%10000m1026hPa84%
19-Jun-2024 15:00Overcast Clouds28°C7 mph, S95%10000m1025hPa68%
19-Jun-2024 18:00Overcast Clouds32°C7 mph, S97%10000m1024hPa59%
19-Jun-2024 21:00Overcast Clouds31°C4 mph, S96%10000m1022hPa68%
20-Jun-2024 00:00Light Rain27°C2 mph, SW98%10000m1023hPa85%
20-Jun-2024 03:00Light Rain24°C2 mph, S100%10000m1024hPa91%
20-Jun-2024 06:00Overcast Clouds22°C4 mph, S100%10000m1024hPa95%
20-Jun-2024 09:00Light Rain21°C4 mph, S99%10000m1024hPa98%
20-Jun-2024 12:00Light Rain23°C4 mph, S98%10000m1025hPa95%
20-Jun-2024 15:00Overcast Clouds29°C4 mph, S100%10000m1024hPa70%
20-Jun-2024 18:00Light Rain34°C4 mph, S100%10000m1022hPa47%
20-Jun-2024 21:00Overcast Clouds34°C2 mph, W92%10000m1020hPa52%
21-Jun-2024 00:00Overcast Clouds27°C4 mph, W97%10000m1021hPa72%
21-Jun-2024 03:00Light Rain22°C4 mph, N84%10000m1024hPa94%
21-Jun-2024 06:00Overcast Clouds21°C4 mph, N85%10000m1023hPa98%
21-Jun-2024 09:00Broken Clouds20°C4 mph, N67%10000m1024hPa98%
21-Jun-2024 12:00Broken Clouds23°C4 mph, NE81%10000m1024hPa90%
21-Jun-2024 15:00Light Rain26°C7 mph, NE90%10000m1023hPa61%
21-Jun-2024 18:00Broken Clouds29°C2 mph, N81%10000m1021hPa53%
21-Jun-2024 21:00Light Rain28°C2 mph, NW80%10000m1020hPa64%
22-Jun-2024 00:00Light Rain24°C4 mph, NE66%10000m1020hPa83%
22-Jun-2024 03:00Light Rain19°C4 mph, N94%10000m1020hPa85%